Airfield :
LOGIN :

Register | Disclaimer

   EN    FR    IT 

 










Legend :    VFR   Marginal VFR   IFR   Intensive IFR   Very Intensive IFR
Visi :
Ceiling :
>= 8 km
>= 3000ft
5 to 8 km
1000 to 3000 ft
1500m to 5 km
500 to 1000 ft
800 to 1500m
200 to 500 ft
< 800m
< 200 ft
Symbols :   Thunderstorms  Fog  Heavy snow  Heavy precipitations  Wind > 20 kt
SIGMETs :     Misc.  Thunderstorms  Icing  Turbulence  Mountain Waves  Volcanic Ashes






- Airport Elevation : 309 ft
- IATA code : FNI


LFTW - Nîmes Garons

CURRENT METAR :
  • 230930Z AUTO VRB03KT CAVOK 20/10 Q1017 TEMPO FEW050CB

EXPIRED METARs :
  • 230900Z AUTO VRB03KT CAVOK 20/11 Q1017 TEMPO FEW050CB
  • 230830Z AUTO VRB04KT CAVOK 20/12 Q1017 TEMPO FEW050CB
  • 230800Z AUTO VRB03KT 9999 NSC 19/11 Q1017
  • 230730Z AUTO 33005KT 300V360 CAVOK 18/11 Q1017 NOSIG
  • 230700Z AUTO 32006KT CAVOK 17/11 Q1017 NOSIG
  • 230630Z AUTO 33006KT CAVOK 17/11 Q1017 NOSIG
  • 230600Z AUTO 28004KT 250V310 CAVOK 16/11 Q1017 TEMPO FEW050TCU
  • 230530Z AUTO 32004KT CAVOK 16/12 Q1016 TEMPO FEW050TCU
  • 230500Z AUTO 33004KT CAVOK 14/11 Q1016 TEMPO FEW050TCU

TAF TAF LFTW
Valid from the 23 at 09:00 until the 24 at 09:00 UTC


230800Z 2309/2409 30005KT CAVOK
TEMPO 2310/2319 FEW050CB
TEMPO 2315/2319 21010KT



MET'MAP, your aeronautical weather chart ! - Copyright ORBIFLY December 2007 - Disclaimer

ORBIFLY MET'MAP TEAM :

Programming & Development : Alexandra Zaïnal
Original concept : Baudouin d'Aumeries
Technical & hardware support : Manuel Goepfert
Assistance : Marc-Olivier Méhu




SOURCES & CREDITS :

   NOAA